sensor_id;sensor_type;location;lat;lon;timestamp;P1;durP1;ratioP1;P2;durP2;ratioP2
63396;SDS011;49532;45.068;38.928;2022-07-18T04:10:46;10.00;;;5.75;;
63396;SDS011;49532;45.068;38.928;2022-07-18T04:15:47;13.60;;;5.38;;
63396;SDS011;49532;45.068;38.928;2022-07-18T04:20:48;14.38;;;6.03;;
63396;SDS011;49532;45.068;38.928;2022-07-18T04:25:49;10.40;;;4.87;;
63396;SDS011;49532;45.068;38.928;2022-07-18T04:30:50;8.50;;;5.00;;
63396;SDS011;49532;45.068;38.928;2022-07-18T04:35:51;20.10;;;7.30;;
63396;SDS011;49532;45.068;38.928;2022-07-18T04:40:52;10.33;;;5.23;;
63396;SDS011;49532;45.068;38.928;2022-07-18T04:45:54;10.43;;;5.37;;
63396;SDS011;49532;45.068;38.928;2022-07-18T04:50:54;18.20;;;5.47;;
63396;SDS011;49532;45.068;38.928;2022-07-18T04:55:56;15.85;;;5.28;;
63396;SDS011;49532;45.068;38.928;2022-07-18T05:00:57;14.47;;;5.70;;
63396;SDS011;49532;45.068;38.928;2022-07-18T05:05:58;17.50;;;5.87;;
63396;SDS011;49532;45.068;38.928;2022-07-18T05:10:59;11.88;;;4.72;;
63396;SDS011;49532;45.068;38.928;2022-07-18T05:16:00;15.23;;;5.63;;
63396;SDS011;49532;45.068;38.928;2022-07-18T05:21:01;10.57;;;4.68;;
63396;SDS011;49532;45.068;38.928;2022-07-18T05:26:02;11.95;;;4.22;;
63396;SDS011;49532;45.068;38.928;2022-07-18T05:31:03;12.73;;;4.45;;
63396;SDS011;49532;45.068;38.928;2022-07-18T05:36:04;11.30;;;4.85;;
63396;SDS011;49532;45.068;38.928;2022-07-18T05:46:07;12.85;;;4.43;;
63396;SDS011;49532;45.068;38.928;2022-07-18T05:51:08;16.05;;;4.03;;
63396;SDS011;49532;45.068;38.928;2022-07-18T05:56:10;10.63;;;4.43;;
63396;SDS011;49532;45.068;38.928;2022-07-18T06:01:12;10.98;;;4.05;;
63396;SDS011;49532;45.068;38.928;2022-07-18T06:06:17;20.17;;;3.95;;
63396;SDS011;49532;45.068;38.928;2022-07-18T06:11:19;8.38;;;3.97;;
63396;SDS011;49532;45.068;38.928;2022-07-18T06:16:20;7.63;;;3.45;;
63396;SDS011;49532;45.068;38.928;2022-07-18T06:21:21;13.90;;;3.80;;
63396;SDS011;49532;45.068;38.928;2022-07-18T06:26:23;17.30;;;4.15;;
63396;SDS011;49532;45.068;38.928;2022-07-18T06:31:24;14.93;;;4.10;;
63396;SDS011;49532;45.068;38.928;2022-07-18T06:36:25;8.57;;;3.25;;
63396;SDS011;49532;45.068;38.928;2022-07-18T06:41:26;24.15;;;3.58;;
63396;SDS011;49532;45.068;38.928;2022-07-18T06:46:27;13.63;;;3.40;;
63396;SDS011;49532;45.068;38.928;2022-07-18T06:51:28;14.85;;;3.30;;
63396;SDS011;49532;45.068;38.928;2022-07-18T06:56:29;5.80;;;2.95;;
63396;SDS011;49532;45.068;38.928;2022-07-18T07:01:30;11.68;;;2.53;;
63396;SDS011;49532;45.068;38.928;2022-07-18T07:06:31;8.02;;;2.15;;
63396;SDS011;49532;45.068;38.928;2022-07-18T07:11:33;3.78;;;2.33;;
63396;SDS011;49532;45.068;38.928;2022-07-18T07:16:34;9.00;;;2.40;;
63396;SDS011;49532;45.068;38.928;2022-07-18T07:21:35;12.48;;;2.15;;
63396;SDS011;49532;45.068;38.928;2022-07-18T07:26:36;7.53;;;2.47;;
63396;SDS011;49532;45.068;38.928;2022-07-18T07:31:37;7.88;;;2.60;;
63396;SDS011;49532;45.068;38.928;2022-07-18T07:36:38;7.38;;;2.35;;
63396;SDS011;49532;45.068;38.928;2022-07-18T07:41:39;9.38;;;2.47;;
63396;SDS011;49532;45.068;38.928;2022-07-18T07:46:40;7.93;;;2.60;;
63396;SDS011;49532;45.068;38.928;2022-07-18T07:51:41;13.27;;;2.67;;
63396;SDS011;49532;45.068;38.928;2022-07-18T07:56:42;7.53;;;2.20;;
63396;SDS011;49532;45.068;38.928;2022-07-18T08:01:44;7.45;;;2.58;;
63396;SDS011;49532;45.068;38.928;2022-07-18T08:06:44;7.05;;;2.40;;
63396;SDS011;49532;45.068;38.928;2022-07-18T08:11:46;8.48;;;2.47;;
63396;SDS011;49532;45.068;38.928;2022-07-18T08:16:47;6.18;;;2.50;;
63396;SDS011;49532;45.068;38.928;2022-07-18T08:21:48;8.35;;;2.83;;
63396;SDS011;49532;45.068;38.928;2022-07-18T08:26:49;10.93;;;2.60;;
63396;SDS011;49532;45.068;38.928;2022-07-18T08:31:50;13.32;;;4.35;;
63396;SDS011;49532;45.068;38.928;2022-07-18T08:36:51;11.98;;;4.78;;
63396;SDS011;49532;45.068;38.928;2022-07-18T08:41:52;7.63;;;3.15;;
63396;SDS011;49532;45.068;38.928;2022-07-18T08:46:56;11.45;;;3.70;;
63396;SDS011;49532;45.068;38.928;2022-07-18T08:52:00;10.63;;;3.50;;
63396;SDS011;49532;45.068;38.928;2022-07-18T08:57:02;23.60;;;3.83;;
63396;SDS011;49532;45.068;38.928;2022-07-18T09:02:03;11.27;;;2.72;;
63396;SDS011;49532;45.068;38.928;2022-07-18T09:07:07;14.98;;;2.75;;
63396;SDS011;49532;45.068;38.928;2022-07-18T09:12:12;11.70;;;2.95;;
63396;SDS011;49532;45.068;38.928;2022-07-18T09:22:23;11.45;;;2.53;;
63396;SDS011;49532;45.068;38.928;2022-07-18T09:32:37;7.13;;;2.30;;
63396;SDS011;49532;45.068;38.928;2022-07-18T09:37:39;5.07;;;2.03;;
63396;SDS011;49532;45.068;38.928;2022-07-18T09:42:41;7.82;;;2.20;;
63396;SDS011;49532;45.068;38.928;2022-07-18T09:47:48;7.82;;;2.35;;
63396;SDS011;49532;45.068;38.928;2022-07-18T09:52:57;4.63;;;2.40;;
63396;SDS011;49532;45.068;38.928;2022-07-18T09:58:03;8.85;;;1.92;;
63396;SDS011;49532;45.068;38.928;2022-07-18T10:03:08;12.02;;;3.15;;
63396;SDS011;49532;45.068;38.928;2022-07-18T10:08:11;7.50;;;2.50;;
63396;SDS011;49532;45.068;38.928;2022-07-18T10:13:14;9.35;;;3.63;;
63396;SDS011;49532;45.068;38.928;2022-07-18T10:18:16;13.05;;;2.60;;
63396;SDS011;49532;45.068;38.928;2022-07-18T10:23:21;4.63;;;2.63;;
63396;SDS011;49532;45.068;38.928;2022-07-18T10:49:59;5.57;;;1.80;;
63396;SDS011;49532;45.068;38.928;2022-07-18T11:15:54;8.52;;;2.13;;
63396;SDS011;49532;45.068;38.928;2022-07-18T11:20:56;7.38;;;2.42;;
63396;SDS011;49532;45.068;38.928;2022-07-18T11:25:57;15.73;;;2.70;;
63396;SDS011;49532;45.068;38.928;2022-07-18T11:30:59;15.70;;;2.80;;
63396;SDS011;49532;45.068;38.928;2022-07-18T11:36:11;13.52;;;3.22;;
63396;SDS011;49532;45.068;38.928;2022-07-18T11:41:14;6.80;;;1.65;;
63396;SDS011;49532;45.068;38.928;2022-07-18T11:46:18;4.88;;;1.90;;
63396;SDS011;49532;45.068;38.928;2022-07-18T11:51:20;7.18;;;2.17;;
63396;SDS011;49532;45.068;38.928;2022-07-18T11:56:24;8.45;;;1.90;;
63396;SDS011;49532;45.068;38.928;2022-07-18T12:01:31;6.78;;;2.10;;
63396;SDS011;49532;45.068;38.928;2022-07-18T12:06:33;8.32;;;2.15;;
63396;SDS011;49532;45.068;38.928;2022-07-18T12:32:22;18.17;;;2.55;;
63396;SDS011;49532;45.068;38.928;2022-07-18T12:37:25;4.95;;;1.70;;
63396;SDS011;49532;45.068;38.928;2022-07-18T12:42:27;13.15;;;2.28;;
63396;SDS011;49532;45.068;38.928;2022-07-18T12:47:35;12.50;;;3.38;;
63396;SDS011;49532;45.068;38.928;2022-07-18T12:52:37;18.98;;;2.53;;
63396;SDS011;49532;45.068;38.928;2022-07-18T13:02:39;15.57;;;2.63;;
63396;SDS011;49532;45.068;38.928;2022-07-18T13:07:40;17.17;;;4.50;;
63396;SDS011;49532;45.068;38.928;2022-07-18T13:17:42;59.40;;;7.17;;
63396;SDS011;49532;45.068;38.928;2022-07-18T13:27:44;7.40;;;1.63;;
63396;SDS011;49532;45.068;38.928;2022-07-18T13:37:46;12.63;;;1.65;;
63396;SDS011;49532;45.068;38.928;2022-07-18T13:42:47;19.15;;;2.30;;
63396;SDS011;49532;45.068;38.928;2022-07-18T13:47:48;5.75;;;1.23;;
63396;SDS011;49532;45.068;38.928;2022-07-18T13:52:49;18.95;;;2.38;;
63396;SDS011;49532;45.068;38.928;2022-07-18T13:57:50;18.83;;;2.60;;
63396;SDS011;49532;45.068;38.928;2022-07-18T14:02:51;19.83;;;2.35;;
63396;SDS011;49532;45.068;38.928;2022-07-18T14:07:53;12.07;;;1.55;;
63396;SDS011;49532;45.068;38.928;2022-07-18T14:12:54;22.00;;;1.95;;
63396;SDS011;49532;45.068;38.928;2022-07-18T14:17:55;10.32;;;1.90;;
63396;SDS011;49532;45.068;38.928;2022-07-18T14:22:56;43.78;;;2.63;;
63396;SDS011;49532;45.068;38.928;2022-07-18T14:27:57;15.93;;;1.90;;
63396;SDS011;49532;45.068;38.928;2022-07-18T14:37:59;13.67;;;2.47;;
63396;SDS011;49532;45.068;38.928;2022-07-18T14:43:00;9.63;;;1.20;;
63396;SDS011;49532;45.068;38.928;2022-07-18T14:48:01;10.77;;;1.30;;
63396;SDS011;49532;45.068;38.928;2022-07-18T14:53:02;15.50;;;1.95;;
63396;SDS011;49532;45.068;38.928;2022-07-18T14:58:03;14.07;;;1.25;;
63396;SDS011;49532;45.068;38.928;2022-07-18T15:03:04;6.43;;;1.92;;
63396;SDS011;49532;45.068;38.928;2022-07-18T15:08:05;15.07;;;1.80;;
63396;SDS011;49532;45.068;38.928;2022-07-18T15:13:07;11.55;;;1.90;;
63396;SDS011;49532;45.068;38.928;2022-07-18T15:18:08;4.03;;;1.27;;
63396;SDS011;49532;45.068;38.928;2022-07-18T15:23:09;8.75;;;2.25;;
63396;SDS011;49532;45.068;38.928;2022-07-18T15:28:10;8.77;;;1.20;;
63396;SDS011;49532;45.068;38.928;2022-07-18T15:33:11;10.00;;;1.45;;
63396;SDS011;49532;45.068;38.928;2022-07-18T15:38:12;12.63;;;2.15;;
63396;SDS011;49532;45.068;38.928;2022-07-18T15:43:13;15.50;;;2.10;;
63396;SDS011;49532;45.068;38.928;2022-07-18T15:48:14;12.88;;;1.30;;
63396;SDS011;49532;45.068;38.928;2022-07-18T15:53:15;8.65;;;1.83;;
63396;SDS011;49532;45.068;38.928;2022-07-18T15:58:16;9.63;;;1.85;;
63396;SDS011;49532;45.068;38.928;2022-07-18T16:03:17;3.75;;;1.08;;
63396;SDS011;49532;45.068;38.928;2022-07-18T16:08:18;18.02;;;1.08;;
63396;SDS011;49532;45.068;38.928;2022-07-18T16:13:19;7.25;;;1.20;;
63396;SDS011;49532;45.068;38.928;2022-07-18T16:18:20;8.60;;;1.63;;
63396;SDS011;49532;45.068;38.928;2022-07-18T16:23:23;10.38;;;2.00;;
63396;SDS011;49532;45.068;38.928;2022-07-18T16:28:24;6.65;;;1.42;;
63396;SDS011;49532;45.068;38.928;2022-07-18T16:33:25;6.15;;;1.65;;
63396;SDS011;49532;45.068;38.928;2022-07-18T16:38:26;5.53;;;1.58;;
63396;SDS011;49532;45.068;38.928;2022-07-18T16:43:27;3.40;;;1.48;;
63396;SDS011;49532;45.068;38.928;2022-07-18T16:48:29;5.63;;;1.23;;
63396;SDS011;49532;45.068;38.928;2022-07-18T16:53:30;5.10;;;1.75;;
63396;SDS011;49532;45.068;38.928;2022-07-18T16:58:33;8.68;;;1.60;;
63396;SDS011;49532;45.068;38.928;2022-07-18T17:03:35;7.75;;;1.33;;
63396;SDS011;49532;45.068;38.928;2022-07-18T17:08:36;8.77;;;2.10;;
63396;SDS011;49532;45.068;38.928;2022-07-18T17:13:37;7.45;;;1.08;;
63396;SDS011;49532;45.068;38.928;2022-07-18T17:18:39;8.68;;;1.40;;
63396;SDS011;49532;45.068;38.928;2022-07-18T17:23:40;6.93;;;1.47;;
63396;SDS011;49532;45.068;38.928;2022-07-18T17:28:42;11.13;;;2.83;;
63396;SDS011;49532;45.068;38.928;2022-07-18T17:33:43;9.57;;;1.40;;
63396;SDS011;49532;45.068;38.928;2022-07-18T17:38:44;4.83;;;2.00;;
63396;SDS011;49532;45.068;38.928;2022-07-18T17:48:50;10.05;;;1.75;;
63396;SDS011;49532;45.068;38.928;2022-07-18T17:53:51;19.63;;;2.10;;
63396;SDS011;49532;45.068;38.928;2022-07-18T17:58:53;7.32;;;1.77;;
63396;SDS011;49532;45.068;38.928;2022-07-18T18:03:54;2.27;;;1.30;;
63396;SDS011;49532;45.068;38.928;2022-07-18T18:08:56;8.95;;;1.70;;
63396;SDS011;49532;45.068;38.928;2022-07-18T18:13:57;10.07;;;1.67;;
63396;SDS011;49532;45.068;38.928;2022-07-18T18:18:59;6.00;;;1.20;;
63396;SDS011;49532;45.068;38.928;2022-07-18T18:24:00;4.47;;;1.45;;
63396;SDS011;49532;45.068;38.928;2022-07-18T18:29:01;9.33;;;1.20;;
63396;SDS011;49532;45.068;38.928;2022-07-18T18:34:02;2.03;;;1.40;;
63396;SDS011;49532;45.068;38.928;2022-07-18T18:39:03;7.25;;;2.00;;
63396;SDS011;49532;45.068;38.928;2022-07-18T18:44:05;9.00;;;1.48;;
63396;SDS011;49532;45.068;38.928;2022-07-18T18:49:08;3.25;;;1.77;;
63396;SDS011;49532;45.068;38.928;2022-07-18T18:54:10;11.93;;;1.15;;
63396;SDS011;49532;45.068;38.928;2022-07-18T18:59:11;8.25;;;1.65;;
63396;SDS011;49532;45.068;38.928;2022-07-18T19:04:13;4.45;;;1.08;;
63396;SDS011;49532;45.068;38.928;2022-07-18T19:09:15;10.23;;;1.95;;
63396;SDS011;49532;45.068;38.928;2022-07-18T19:14:17;5.20;;;1.57;;
63396;SDS011;49532;45.068;38.928;2022-07-18T19:19:19;3.00;;;1.35;;
63396;SDS011;49532;45.068;38.928;2022-07-18T19:24:20;4.05;;;1.67;;
63396;SDS011;49532;45.068;38.928;2022-07-18T19:29:23;4.97;;;1.95;;
63396;SDS011;49532;45.068;38.928;2022-07-18T19:34:24;3.53;;;1.52;;
63396;SDS011;49532;45.068;38.928;2022-07-18T19:39:25;12.18;;;2.63;;
63396;SDS011;49532;45.068;38.928;2022-07-18T19:44:26;9.45;;;1.92;;
63396;SDS011;49532;45.068;38.928;2022-07-18T19:49:28;12.33;;;3.10;;
63396;SDS011;49532;45.068;38.928;2022-07-18T19:54:29;10.57;;;3.33;;
63396;SDS011;49532;45.068;38.928;2022-07-18T19:59:30;3.47;;;1.95;;
63396;SDS011;49532;45.068;38.928;2022-07-18T20:04:32;6.28;;;1.92;;
63396;SDS011;49532;45.068;38.928;2022-07-18T20:09:33;6.38;;;1.90;;
63396;SDS011;49532;45.068;38.928;2022-07-18T20:14:34;8.93;;;2.72;;
63396;SDS011;49532;45.068;38.928;2022-07-18T20:19:35;13.40;;;1.70;;
63396;SDS011;49532;45.068;38.928;2022-07-18T20:24:36;7.65;;;2.83;;
63396;SDS011;49532;45.068;38.928;2022-07-18T20:29:37;4.18;;;1.63;;
63396;SDS011;49532;45.068;38.928;2022-07-18T20:34:38;13.25;;;6.03;;
